createdAt,value
2019-06-01T00:00:11.064Z,94.10
2019-06-01T00:04:05.584Z,94.00
2019-06-01T00:08:10.200Z,94.20
2019-06-01T00:12:14.872Z,94.40
2019-06-01T00:16:19.636Z,94.30
2019-06-01T00:20:24.234Z,94.00
2019-06-01T00:24:28.870Z,94.00
2019-06-01T00:28:33.492Z,94.50
2019-06-01T00:32:38.019Z,94.20
2019-06-01T00:36:43.509Z,94.40
2019-06-01T00:40:48.195Z,94.30
2019-06-01T00:44:52.818Z,94.20
2019-06-01T00:48:57.490Z,94.10
2019-06-01T00:53:02.259Z,94.00
2019-06-01T00:57:07.128Z,94.20
2019-06-01T01:01:12.588Z,94.20
2019-06-01T01:05:18.770Z,93.90
2019-06-01T01:09:23.355Z,94.10
2019-06-01T01:13:28.145Z,94.20
2019-06-01T01:17:32.651Z,94.00
2019-06-01T01:21:37.263Z,94.50
2019-06-01T01:25:41.778Z,94.30
2019-06-01T01:29:46.832Z,94.20
2019-06-01T01:33:51.449Z,94.50
2019-06-01T01:37:59.076Z,94.70
2019-06-01T01:42:03.606Z,94.50
2019-06-01T01:46:08.153Z,94.80
2019-06-01T01:50:12.756Z,94.40
2019-06-01T01:54:17.284Z,94.70
2019-06-01T01:58:21.791Z,94.50
2019-06-01T02:02:26.349Z,94.70
2019-06-01T02:06:30.875Z,94.70
2019-06-01T02:10:35.477Z,94.70
2019-06-01T02:14:40.606Z,94.90
2019-06-01T02:18:45.116Z,94.70
2019-06-01T02:22:49.644Z,94.60
2019-06-01T02:26:55.096Z,94.50
2019-06-01T02:31:00.015Z,94.60
2019-06-01T02:35:06.275Z,94.70
2019-06-01T02:39:12.568Z,94.80
2019-06-01T02:43:17.103Z,94.70
2019-06-01T02:47:21.625Z,94.70
2019-06-01T02:51:26.197Z,94.90
2019-06-01T02:55:30.728Z,94.90
2019-06-01T02:59:35.315Z,94.90
2019-06-01T03:03:41.324Z,94.80
2019-06-01T03:07:49.044Z,94.80
2019-06-01T03:11:58.878Z,94.80
2019-06-01T03:16:04.825Z,94.70
2019-06-01T03:20:09.692Z,94.80
2019-06-01T03:24:14.315Z,95.00
2019-06-01T03:28:22.239Z,94.90
2019-06-01T03:32:36.188Z,95.00
2019-06-01T03:36:32.795Z,95.00
2019-06-01T03:40:37.631Z,95.40
2019-06-01T03:44:42.246Z,95.50
2019-06-01T03:48:46.767Z,95.60
2019-06-01T03:52:51.299Z,95.70
2019-06-01T03:56:55.819Z,96.00
2019-06-01T04:01:00.910Z,95.90
2019-06-01T04:05:07.391Z,96.00
2019-06-01T04:09:11.979Z,96.20
2019-06-01T04:13:16.574Z,96.30
2019-06-01T04:17:21.119Z,96.10
2019-06-01T04:21:25.632Z,95.80
2019-06-01T04:25:31.935Z,96.00
2019-06-01T04:29:36.503Z,96.00
2019-06-01T04:33:41.098Z,95.70
2019-06-01T04:37:45.652Z,94.80
2019-06-01T04:41:50.248Z,94.30
2019-06-01T04:45:54.926Z,93.70
2019-06-01T04:49:59.451Z,93.10
2019-06-01T04:54:04.801Z,92.50
2019-06-01T04:58:09.514Z,92.00
2019-06-01T05:02:15.151Z,91.30
2019-06-01T05:06:19.842Z,90.70
2019-06-01T05:10:24.649Z,90.20
2019-06-01T05:14:29.298Z,88.90
2019-06-01T05:18:33.913Z,87.80
2019-06-01T05:22:38.568Z,88.30
2019-06-01T05:26:43.216Z,86.10
2019-06-01T05:30:47.745Z,83.70
2019-06-01T05:34:52.382Z,81.30
2019-06-01T05:38:56.900Z,78.70
2019-06-01T05:43:01.520Z,76.70
2019-06-01T05:47:06.163Z,74.90
2019-06-01T05:51:13.722Z,74.30
2019-06-01T05:55:17.093Z,72.40
2019-06-01T05:59:22.272Z,72.30
2019-06-01T06:03:40.028Z,72.20
2019-06-01T06:07:33.246Z,71.20
2019-06-01T06:11:37.768Z,70.70
2019-06-01T06:15:42.388Z,68.50
2019-06-01T06:19:46.892Z,66.70
2019-06-01T06:23:51.449Z,64.50
2019-06-01T06:27:56.204Z,63.50
2019-06-01T06:32:00.722Z,60.20
2019-06-01T06:36:05.296Z,58.30
2019-06-01T06:40:11.327Z,58.70
2019-06-01T06:44:16.404Z,57.20
2019-06-01T06:48:21.317Z,56.60
2019-06-01T06:52:26.130Z,55.40
2019-06-01T06:56:30.669Z,57.40
2019-06-01T07:00:35.385Z,61.10
2019-06-01T07:04:39.895Z,64.40
2019-06-01T07:08:44.508Z,68.70
2019-06-01T07:12:49.242Z,67.10
2019-06-01T07:16:53.885Z,68.70
2019-06-01T07:20:58.538Z,68.10
2019-06-01T07:25:04.079Z,68.00
2019-06-01T07:29:08.595Z,67.80
2019-06-01T07:33:13.250Z,69.40
2019-06-01T07:37:17.961Z,67.50
2019-06-01T07:41:22.605Z,68.20
2019-06-01T07:45:27.406Z,68.10
2019-06-01T07:49:31.938Z,68.80
2019-06-01T07:53:36.707Z,67.30
2019-06-01T07:57:43.587Z,66.90
2019-06-01T08:01:47.542Z,68.50
2019-06-01T08:05:52.187Z,66.80
2019-06-01T08:09:56.927Z,66.30
2019-06-01T08:14:01.623Z,64.00
2019-06-01T08:18:07.963Z,64.90
2019-06-01T08:22:12.515Z,62.70
2019-06-01T08:26:19.951Z,63.90
2019-06-01T08:30:24.397Z,60.90
2019-06-01T08:34:29.203Z,61.20
2019-06-01T08:38:33.924Z,59.20
2019-06-01T08:42:38.552Z,60.80
2019-06-01T08:46:43.112Z,58.90
2019-06-01T08:50:47.866Z,59.70
2019-06-01T08:54:52.402Z,58.00
2019-06-01T08:58:57.071Z,57.10
2019-06-01T09:03:01.624Z,55.60
2019-06-01T09:07:06.331Z,57.90
2019-06-01T09:11:11.085Z,56.40
2019-06-01T09:15:15.855Z,56.60
2019-06-01T09:19:20.501Z,56.50
2019-06-01T09:23:25.455Z,57.10
2019-06-01T09:27:30.265Z,55.20
2019-06-01T09:31:36.559Z,55.70
2019-06-01T09:35:54.446Z,53.80
2019-06-01T09:39:47.214Z,53.30
2019-06-01T09:43:51.886Z,51.80
2019-06-01T09:47:56.350Z,53.40
2019-06-01T09:52:01.221Z,50.90
2019-06-01T09:56:05.915Z,51.70
2019-06-01T10:00:12.532Z,51.60
2019-06-01T10:04:16.855Z,54.70
2019-06-01T10:08:21.396Z,52.00
2019-06-01T10:12:25.904Z,52.10
2019-06-01T10:16:30.463Z,51.60
2019-06-01T10:20:34.845Z,50.90
2019-06-01T10:24:39.347Z,48.50
2019-06-01T10:28:43.780Z,47.60
2019-06-01T10:32:48.312Z,49.00
2019-06-01T10:36:52.726Z,49.10
2019-06-01T10:40:57.269Z,48.20
2019-06-01T10:45:01.907Z,46.50
2019-06-01T10:49:06.362Z,48.20
2019-06-01T10:53:10.726Z,50.30
2019-06-01T10:57:15.123Z,48.20
2019-06-01T11:01:19.415Z,49.30
2019-06-01T11:05:23.752Z,48.40
2019-06-01T11:09:28.464Z,49.40
2019-06-01T11:13:33.076Z,48.00
2019-06-01T11:17:39.097Z,48.70
2019-06-01T11:21:43.897Z,46.40
2019-06-01T11:25:48.214Z,47.50
2019-06-01T11:29:52.464Z,48.40
2019-06-01T11:33:56.709Z,47.50
2019-06-01T11:38:01.339Z,46.90
2019-06-01T11:42:05.789Z,48.90
2019-06-01T11:46:10.232Z,47.70
2019-06-01T11:50:15.045Z,46.30
2019-06-01T11:54:19.347Z,47.00
2019-06-01T11:58:23.661Z,46.90
2019-06-01T12:02:28.051Z,47.40
2019-06-01T12:06:32.563Z,45.60
2019-06-01T12:10:37.124Z,44.90
2019-06-01T12:14:42.656Z,47.80
2019-06-01T12:18:47.247Z,49.00
2019-06-01T12:22:51.500Z,47.60
2019-06-01T12:26:55.975Z,48.30
2019-06-01T12:31:00.579Z,47.80
2019-06-01T12:35:09.089Z,47.40
2019-06-01T12:39:13.692Z,44.20
2019-06-01T12:43:18.127Z,45.50
2019-06-01T12:47:22.474Z,45.60
2019-06-01T12:51:26.733Z,45.50
2019-06-01T12:55:30.981Z,46.10
2019-06-01T12:59:35.579Z,45.30
2019-06-01T13:03:39.816Z,45.70
2019-06-01T13:07:57.432Z,43.80
2019-06-01T13:11:51.452Z,45.40
2019-06-01T13:15:55.895Z,45.50
2019-06-01T13:20:00.187Z,44.10
2019-06-01T13:24:04.686Z,45.30
2019-06-01T13:28:09.203Z,44.50
2019-06-01T13:32:13.833Z,43.10
2019-06-01T13:36:18.279Z,41.90
2019-06-01T13:40:23.902Z,44.30
2019-06-01T13:44:28.265Z,40.80
2019-06-01T13:48:32.904Z,43.10
2019-06-01T13:52:37.570Z,44.60
2019-06-01T13:56:42.252Z,41.50
2019-06-01T14:00:46.529Z,44.40
2019-06-01T14:04:52.042Z,41.80
2019-06-01T14:08:56.773Z,43.00
2019-06-01T14:13:04.939Z,43.00
2019-06-01T14:17:07.215Z,42.10
2019-06-01T14:21:11.835Z,45.20
2019-06-01T14:25:16.525Z,42.80
2019-06-01T14:29:20.792Z,44.40
2019-06-01T14:33:25.517Z,42.50
2019-06-01T14:37:29.772Z,42.20
2019-06-01T14:41:34.371Z,41.50
2019-06-01T14:45:38.658Z,40.00
2019-06-01T14:49:42.855Z,38.40
2019-06-01T14:53:47.491Z,38.20
2019-06-01T14:57:52.478Z,40.00
2019-06-01T15:01:58.295Z,41.20
2019-06-01T15:06:02.754Z,41.40
2019-06-01T15:10:09.231Z,43.80
2019-06-01T15:14:14.032Z,43.20
2019-06-01T15:18:18.556Z,43.10
2019-06-01T15:22:22.814Z,43.90
2019-06-01T15:26:27.499Z,43.10
2019-06-01T15:30:31.816Z,45.80
2019-06-01T15:34:36.058Z,44.60
2019-06-01T15:38:40.361Z,43.80
2019-06-01T15:42:44.651Z,45.30
2019-06-01T15:46:48.947Z,45.90
2019-06-01T15:50:54.131Z,44.80
2019-06-01T15:55:00.487Z,45.90
2019-06-01T15:59:05.268Z,44.80
2019-06-01T16:03:09.989Z,46.40
2019-06-01T16:07:14.704Z,46.70
2019-06-01T16:11:18.972Z,45.70
2019-06-01T16:15:23.423Z,45.90
2019-06-01T16:19:27.793Z,45.90
2019-06-01T16:23:48.703Z,46.60
2019-06-01T16:27:38.537Z,45.90
2019-06-01T16:31:43.386Z,46.50
2019-06-01T16:35:47.807Z,46.20
2019-06-01T16:40:01.748Z,46.70
2019-06-01T16:43:59.453Z,45.30
2019-06-01T16:48:04.115Z,46.70
2019-06-01T16:52:08.557Z,47.40
2019-06-01T16:56:12.810Z,46.80
2019-06-01T17:00:17.569Z,45.50
2019-06-01T17:04:22.295Z,44.60
2019-06-01T17:08:26.720Z,47.00
2019-06-01T17:12:31.271Z,46.00
2019-06-01T17:16:36.024Z,46.90
2019-06-01T17:20:49.932Z,46.00
2019-06-01T17:24:54.451Z,47.40
2019-06-01T17:28:59.812Z,46.30
2019-06-01T17:33:04.914Z,46.50
2019-06-01T17:37:09.292Z,47.90
2019-06-01T17:41:13.710Z,47.60
2019-06-01T17:45:18.338Z,48.00
2019-06-01T17:49:22.986Z,49.20
2019-06-01T17:53:27.328Z,48.50
2019-06-01T17:57:31.690Z,49.80
2019-06-01T18:01:36.095Z,50.00
2019-06-01T18:05:40.409Z,49.70
2019-06-01T18:09:44.704Z,49.60
2019-06-01T18:13:49.162Z,50.50
2019-06-01T18:17:53.484Z,52.40
2019-06-01T18:21:57.827Z,54.10
2019-06-01T18:26:02.616Z,56.50
2019-06-01T18:30:09.267Z,58.90
2019-06-01T18:34:13.796Z,62.70
2019-06-01T18:38:18.492Z,64.80
2019-06-01T18:42:26.143Z,66.60
2019-06-01T18:46:30.714Z,67.80
2019-06-01T18:50:36.103Z,69.40
2019-06-01T18:54:40.767Z,70.90
2019-06-01T18:58:45.389Z,72.40
2019-06-01T19:02:50.116Z,73.50
2019-06-01T19:06:54.696Z,74.50
2019-06-01T19:10:59.382Z,76.00
2019-06-01T19:15:22.036Z,77.00
2019-06-01T19:19:14.764Z,78.10
2019-06-01T19:23:21.869Z,79.20
2019-06-01T19:27:25.793Z,80.70
2019-06-01T19:31:30.432Z,81.80
2019-06-01T19:35:35.353Z,82.60
2019-06-01T19:39:40.524Z,83.40
2019-06-01T19:43:45.261Z,84.60
2019-06-01T19:47:49.917Z,85.30
2019-06-01T19:51:54.533Z,86.00
2019-06-01T19:55:59.175Z,87.10
2019-06-01T20:00:06.397Z,87.80
2019-06-01T20:04:10.976Z,88.50
2019-06-01T20:08:16.223Z,88.90
2019-06-01T20:12:20.920Z,89.60
2019-06-01T20:16:25.464Z,89.70
2019-06-01T20:20:30.284Z,90.00
2019-06-01T20:24:34.854Z,90.30
2019-06-01T20:28:39.442Z,90.30
2019-06-01T20:32:44.170Z,90.40
2019-06-01T20:36:48.829Z,90.40
2019-06-01T20:40:53.547Z,90.60
2019-06-01T20:44:58.111Z,90.70
2019-06-01T20:49:02.697Z,90.90
2019-06-01T20:53:07.474Z,90.90
2019-06-01T20:57:13.324Z,90.80
2019-06-01T21:01:18.008Z,91.10
2019-06-01T21:05:23.846Z,91.10
2019-06-01T21:09:28.752Z,91.20
2019-06-01T21:13:33.396Z,91.10
2019-06-01T21:17:38.007Z,91.40
2019-06-01T21:21:42.650Z,91.40
2019-06-01T21:25:47.248Z,91.50
2019-06-01T21:29:51.926Z,91.60
2019-06-01T21:33:56.521Z,91.30
2019-06-01T21:38:01.085Z,91.50
2019-06-01T21:42:05.780Z,91.60
2019-06-01T21:46:10.347Z,91.80
2019-06-01T21:50:18.197Z,92.00
2019-06-01T21:54:22.227Z,91.90
2019-06-01T21:58:26.732Z,92.00
2019-06-01T22:02:31.303Z,91.90
2019-06-01T22:06:35.857Z,92.00
2019-06-01T22:10:40.397Z,91.80
2019-06-01T22:14:44.957Z,92.00
2019-06-01T22:18:49.526Z,92.10
2019-06-01T22:22:54.129Z,92.50
2019-06-01T22:26:58.701Z,92.40
2019-06-01T22:31:03.255Z,92.10
2019-06-01T22:35:07.940Z,92.10
2019-06-01T22:39:12.603Z,92.30
2019-06-01T22:43:17.065Z,92.20
2019-06-01T22:47:22.484Z,92.30
2019-06-01T22:51:27.259Z,92.30
2019-06-01T22:55:32.587Z,92.50
2019-06-01T22:59:37.201Z,92.60
2019-06-01T23:03:41.740Z,92.50
2019-06-01T23:07:46.337Z,92.60
2019-06-01T23:11:50.878Z,92.60
2019-06-01T23:15:55.590Z,92.40
2019-06-01T23:20:00.305Z,92.30
2019-06-01T23:24:04.905Z,92.40
2019-06-01T23:28:09.433Z,92.70
2019-06-01T23:32:13.991Z,92.80
2019-06-01T23:36:18.794Z,92.70
2019-06-01T23:40:24.421Z,92.70
2019-06-01T23:44:31.921Z,92.60
2019-06-01T23:48:35.514Z,92.50
2019-06-01T23:52:40.185Z,92.60
2019-06-01T23:56:44.861Z,92.30
